Latest Weather Observations for Mandurah

IDW60901

Issued at 8:01 am WST Wednesday 16 January 2019 (issued every 10 minutes, with the page automatically refreshed every 10 minutes)

About weather observations | Map of Perth area stations | Latest observations for Perth area | Other Formats
Station Details ID: 009977 Name: MANDURAH Lat: -32.52 Lon: 115.71 Height: 3.0 m
Data from the previous 72 hours. | See also: Recent months at Mandurah
Date/Time
WST
Temp
°C
App
Temp
°C
Dew
Point
°C
Rel
Hum
%
Delta-T
°C
Wind Press
QNH
hPa
Press
MSL
hPa
Rain since
9am
mm
Dir  Spd
km/h
Gust
km/h
Spd
kts
Gust
kts
16/08:00am 18.5 16.6 11.8 65 3.7 SSE 13 19 7 10 1013.1 1013.1 0.0
16/07:30am 17.6 15.0 12.1 70 3.0 SSE 17 24 9 13 1013.0 1013.0 0.0
16/07:00am 17.2 14.2 11.9 71 2.9 SSE 19 28 10 15 1012.7 1012.7 0.0
16/06:30am 16.8 13.8 11.9 73 2.7 S 19 28 10 15 1012.8 1012.8 0.0
16/06:00am 16.5 13.8 11.6 73 2.7 S 17 26 9 14 1012.3 1012.3 0.0
16/05:30am 16.3 14.0 11.7 74 2.5 SSE 15 22 8 12 1012.0 1012.0 0.0
16/05:00am 16.5 13.8 11.6 73 2.7 SSE 17 26 9 14 1011.9 1011.9 0.0
16/04:30am 16.9 13.9 11.8 72 2.8 SSE 19 30 10 16 1011.6 1011.6 0.0
16/04:00am 17.1 14.1 11.8 71 2.9 S 19 30 10 16 1011.4 1011.4 0.0
16/03:30am 17.4 14.4 12.1 71 2.9 S 19 26 10 14 1011.1 1011.1 0.0
16/03:00am 17.6 14.5 12.1 70 3.0 S 20 32 11 17 1010.9 1010.9 0.0
16/02:30am 18.0 14.9 12.2 69 3.2 S 20 30 11 16 1010.8 1010.8 0.0
16/02:00am 18.2 15.2 12.4 69 3.2 S 20 33 11 18 1010.9 1010.9 0.0
16/01:30am 18.5 15.1 12.5 68 3.3 S 22 35 12 19 1010.9 1010.9 0.0
16/01:00am 18.9 15.2 12.6 67 3.5 S 24 37 13 20 1011.1 1011.1 0.0
16/12:30am 19.3 15.6 12.8 66 3.7 S 24 37 13 20 1011.2 1011.2 0.0
16/12:00am 19.6 16.1 13.3 67 3.6 S 24 35 13 19 1011.2 1011.2 0.0
 
Date/Time
WST
Temp
°C
App
Temp
°C
Dew
Point
°C
Rel
Hum
%
Delta-T
°C
Wind Press
QNH
hPa
Press
MSL
hPa
Rain since
9am
mm
Dir  Spd
km/h
Gust
km/h
Spd
kts
Gust
kts
15/11:30pm 19.8 16.9 14.0 69 3.3 S 22 33 12 18 1011.1 1011.1 0.0
15/11:00pm 19.7 15.7 14.1 70 3.2 S 28 39 15 21 1011.1 1011.1 0.0
15/10:30pm 19.9 17.1 14.3 70 3.2 S 22 33 12 18 1011.0 1011.0 0.0
15/10:00pm 20.3 17.9 14.4 69 3.4 S 20 35 11 19 1011.0 1011.0 0.0
15/09:30pm 20.6 17.5 14.5 68 3.6 S 24 39 13 21 1010.9 1010.9 0.0
15/09:00pm 20.9 17.4 14.5 67 3.7 S 26 41 14 22 1010.8 1010.8 0.0
15/08:30pm 21.3 18.3 14.7 66 3.9 S 24 39 13 21 1010.6 1010.6 0.0
15/08:00pm 21.4 18.4 14.8 66 3.9 S 24 46 13 25 1010.3 1010.3 0.0
15/07:30pm 21.5 19.2 15.6 69 3.5 SSW 22 35 12 19 1010.3 1010.3 0.0
15/07:00pm 21.8 19.7 15.2 66 3.9 SSW 20 32 11 17 1010.3 1010.3 0.0
15/06:30pm 22.0 19.9 15.1 65 4.1 SSW 20 30 11 16 1010.4 1010.4 0.0
15/06:00pm 22.4 19.4 14.8 62 4.5 SSW 24 35 13 19 1010.5 1010.5 0.0
15/05:30pm 23.1 20.6 15.2 61 4.7 SSW 22 35 12 19 1010.5 1010.5 0.0
15/05:00pm 23.6 21.5 15.1 59 5.1 SW 20 35 11 19 1010.5 1010.5 0.0
15/04:30pm 23.6 20.9 14.6 57 5.3 SSW 22 35 12 19 1010.4 1010.4 0.0
15/04:00pm 23.4 19.7 13.8 54 5.6 SSW 26 37 14 20 1010.5 1010.5 0.0
15/03:30pm 23.9 20.8 14.6 56 5.5 SSW 24 35 13 19 1010.5 1010.5 0.0
15/03:00pm 24.3 21.4 14.1 53 6.0 SSW 22 33 12 18 1010.7 1010.7 0.0
15/02:30pm 24.6 21.5 14.4 53 6.0 SW 24 35 13 19 1010.9 1010.9 0.0
15/02:00pm 24.1 20.3 14.8 56 5.5 SW 28 41 15 22 1011.2 1011.2 0.0
15/01:30pm 23.9 20.2 15.1 58 5.3 SW 28 43 15 23 1011.3 1011.3 0.0
15/01:00pm 24.7 21.0 15.1 55 5.8 SW 28 39 15 21 1011.5 1011.5 0.0
15/12:30pm 25.0 21.7 15.0 53 6.0 WSW 26 39 14 21 1011.7 1011.7 0.0
15/12:00pm 24.9 23.1 14.4 52 6.2 SSW 17 35 9 19 1012.0 1012.0 0.0
15/11:30am 25.2 23.6 11.4 42 7.8 S 11 19 6 10 1012.5 1012.5 0.0
15/11:00am 25.1 24.3 11.6 42 7.7 SE 7 17 4 9 1012.7 1012.7 0.0
15/10:30am 24.1 23.0 11.8 46 7.0 SSE 9 15 5 8 1012.9 1012.9 0.0
15/10:00am 23.0 22.1 11.4 48 6.5 SSE 7 15 4 8 1013.2 1013.2 0.0
15/09:30am 22.6 21.9 12.0 51 6.0 SE 7 17 4 9 1013.5 1013.5 0.0
15/09:00am 20.8 19.5 11.4 55 5.2 SSE 9 15 5 8 1013.6 1013.6 0.0
15/08:30am 20.2 18.1 11.1 56 5.0 SE 13 17 7 9 1013.7 1013.7 0.0
15/08:00am 19.6 17.6 11.4 59 4.5 ESE 13 22 7 12 1013.9 1013.9 0.0
15/07:30am 18.6 16.1 11.2 62 4.0 ESE 15 20 8 11 1014.0 1014.0 0.0
15/07:00am 17.8 16.1 11.1 65 3.6 SE 11 19 6 10 1013.8 1013.8 0.0
15/06:30am 17.3 15.7 11.6 69 3.1 SE 11 17 6 9 1013.4 1013.4 0.0
15/06:00am 16.8 15.0 10.9 68 3.2 SSE 11 15 6 8 1013.1 1013.1 0.0
15/05:30am 16.8 15.0 10.9 68 3.2 SSE 11 19 6 10 1012.8 1012.8 0.0
15/05:00am 17.0 14.9 11.1 68 3.2 SSE 13 22 7 12 1012.6 1012.6 0.0
15/04:30am 17.3 14.8 11.1 67 3.3 SE 15 22 8 12 1012.3 1012.3 0.0
15/04:00am 17.6 14.7 10.9 65 3.6 SE 17 26 9 14 1012.1 1012.1 0.0
15/03:30am 17.8 15.5 11.6 67 3.4 SSE 15 24 8 13 1011.9 1011.9 0.0
15/03:00am 18.1 16.4 12.3 69 3.2 SSE 13 20 7 11 1011.9 1011.9 0.0
15/02:30am 18.4 14.9 11.0 62 4.0 SE 20 26 11 14 1011.9 1011.9 0.0
15/02:00am 18.8 16.5 11.9 64 3.8 SSE 15 24 8 13 1012.2 1012.2 0.0
15/01:30am 19.1 17.4 12.6 66 3.6 SSE 13 22 7 12 1012.2 1012.2 0.0
15/01:00am 19.5 17.4 12.3 63 4.0 SSE 15 22 8 12 1012.3 1012.3 0.0
15/12:30am 19.4 16.5 12.4 64 3.9 SSE 19 32 10 17 1012.2 1012.2 0.0
15/12:00am 19.6 16.8 12.6 64 3.9 SSE 19 28 10 15 1012.4 1012.4 0.0
 
Date/Time
WST
Temp
°C
App
Temp
°C
Dew
Point
°C
Rel
Hum
%
Delta-T
°C
Wind Press
QNH
hPa
Press
MSL
hPa
Rain since
9am
mm
Dir  Spd
km/h
Gust
km/h
Spd
kts
Gust
kts
14/11:30pm 19.8 17.1 12.8 64 3.9 SSE 19 28 10 15 1012.5 1012.5 0.0
14/11:00pm 20.2 17.6 13.2 64 4.0 S 19 28 10 15 1012.6 1012.6 0.0
14/10:30pm 20.2 17.1 13.4 65 3.9 S 22 32 12 17 1012.7 1012.7 0.0
14/10:00pm 20.4 17.0 13.6 65 3.9 S 24 39 13 21 1012.7 1012.7 0.0
14/09:30pm 20.9 17.5 13.6 63 4.2 S 24 37 13 20 1012.6 1012.6 0.0
14/09:00pm 21.4 19.2 15.0 67 3.8 S 20 33 11 18 1012.6 1012.6 0.0
14/08:30pm 21.4 19.3 15.3 68 3.6 SSW 20 33 11 18 1012.4 1012.4 0.0
14/08:00pm 21.8 19.4 15.4 67 3.8 SSW 22 33 12 18 1012.1 1012.1 0.0
14/07:30pm 21.9 20.4 16.4 71 3.3 SSW 19 28 10 15 1012.0 1012.0 0.0
14/07:00pm 22.1 21.7 16.1 69 3.6 SSW 13 22 7 12 1011.7 1011.7 0.0
14/06:30pm 22.2 21.1 15.3 65 4.1 SSW 15 24 8 13 1011.6 1011.6 0.0
14/06:00pm 22.7 20.3 14.5 60 4.8 SSW 20 28 11 15 1011.7 1011.7 0.0
14/05:30pm 23.5 21.6 15.3 60 4.9 SSW 19 30 10 16 1011.5 1011.5 0.0
14/05:00pm 23.3 20.6 15.6 62 4.6 SW 24 35 13 19 1011.3 1011.3 0.0
14/04:30pm 23.2 20.2 15.8 63 4.5 SW 26 39 14 21 1011.3 1011.3 0.0
14/04:00pm 23.8 21.5 16.6 64 4.4 SW 24 35 13 19 1011.4 1011.4 0.0
14/03:30pm 23.6 20.2 15.9 62 4.7 SW 28 39 15 21 1011.6 1011.6 0.0
14/03:00pm 24.4 20.6 14.8 55 5.7 WSW 28 41 15 22 1011.6 1011.6 0.0
14/02:30pm 25.3 22.8 16.2 57 5.6 SW 24 37 13 20 1011.8 1011.8 0.0
14/02:00pm 25.1 22.7 16.3 58 5.4 WSW 24 37 13 20 1012.0 1012.0 0.0
14/01:30pm 25.8 23.3 16.1 55 5.9 WSW 24 33 13 18 1012.2 1012.2 0.0
14/01:00pm 26.0 24.0 16.5 55 5.9 WSW 22 37 12 20 1012.5 1012.5 0.0
14/12:30pm 26.3 24.7 16.0 53 6.3 SW 19 28 10 15 1012.7 1012.7 0.0
14/12:00pm 25.7 23.8 15.1 52 6.4 SW 19 28 10 15 1013.1 1013.1 0.0
14/11:30am 26.7 26.0 15.4 50 6.9 SSW 13 26 7 14 1013.4 1013.4 0.0
14/11:00am 25.6 24.1 14.1 49 6.8 SSW 15 24 8 13 1013.7 1013.7 0.0
14/10:30am 24.3 23.2 14.4 54 5.9 S 13 24 7 13 1013.9 1013.9 0.0
14/10:00am 23.8 22.6 13.9 54 5.8 S 13 20 7 11 1014.1 1014.1 0.0
14/09:30am 22.8 21.8 14.6 60 4.8 S 13 20 7 11 1014.5 1014.5 0.0
14/09:00am 21.9 20.2 14.8 64 4.2 S 17 22 9 12 1014.6 1014.6 0.0
14/08:30am 21.1 19.9 15.0 68 3.6 SSE 15 24 8 13 1014.8 1014.8 0.0
14/08:00am 20.8 19.7 15.4 71 3.2 SSE 15 22 8 12 1015.1 1015.1 0.0
14/07:30am 20.0 18.9 15.4 75 2.7 SSE 15 20 8 11 1015.2 1015.2 0.0
14/07:00am 19.6 19.1 15.9 79 2.2 SSE 13 22 7 12 1015.0 1015.0 0.0
14/06:30am 18.9 18.4 15.8 82 1.8 SSE 13 22 7 12 1014.9 1014.9 0.0
14/06:00am 18.9 18.9 16.3 85 1.6 SSE 11 17 6 9 1014.8 1014.8 0.0
14/05:30am 18.9 18.9 16.3 85 1.6 SSE 11 19 6 10 1014.5 1014.5 0.0
14/05:00am 19.3 19.5 16.7 85 1.6 SSE 11 15 6 8 1014.2 1014.2 0.0
14/04:30am 19.5 19.7 16.7 84 1.7 SSE 11 17 6 9 1014.0 1014.0 0.0
14/04:00am 19.5 20.1 16.9 85 1.6 SSE 9 17 5 9 1013.9 1013.9 0.0
14/03:30am 19.5 19.7 16.7 84 1.7 SSE 11 19 6 10 1013.9 1013.9 0.0
14/03:00am 19.6 19.9 17.0 85 1.6 SSE 11 19 6 10 1014.0 1014.0 0.0
14/02:30am 19.7 19.7 17.3 86 1.5 SSE 13 19 7 10 1014.0 1014.0 0.0
14/02:00am 19.9 20.3 17.3 85 1.6 SSE 11 19 6 10 1014.4 1014.4 0.0
14/01:30am 20.0 19.9 17.0 83 1.8 SSE 13 20 7 11 1014.6 1014.6 0.0
14/01:00am 20.6 20.5 17.0 80 2.2 SSE 13 20 7 11 1014.8 1014.8 0.0
14/12:30am 20.7 20.2 16.9 79 2.3 S 15 24 8 13 1015.0 1015.0 0.0
14/12:00am 20.8 20.0 17.2 80 2.2 S 17 28 9 15 1014.9 1014.9 0.0
 
Date/Time
WST
Temp
°C
App
Temp
°C
Dew
Point
°C
Rel
Hum
%
Delta-T
°C
Wind Press
QNH
hPa
Press
MSL
hPa
Rain since
9am
mm
Dir  Spd
km/h
Gust
km/h
Spd
kts
Gust
kts
13/11:30pm 21.0 20.3 17.4 80 2.2 S 17 28 9 15 1015.1 1015.1 0.0
13/11:00pm 21.0 20.6 18.0 83 1.9 S 17 28 9 15 1015.1 1015.1 0.0
13/10:30pm 21.1 20.4 18.3 84 1.7 S 19 30 10 16 1015.0 1015.0 0.0
13/10:00pm 21.3 20.6 18.3 83 1.9 S 19 30 10 16 1015.1 1015.1 0.0
13/09:30pm 21.8 20.6 18.4 81 2.1 SSW 22 37 12 20 1014.8 1014.8 0.0
13/09:00pm 22.1 21.2 18.1 78 2.5 SSW 20 37 11 20 1014.4 1014.4 0.0
13/08:30pm 22.4 20.7 18.0 76 2.7 SSW 24 43 13 23 1014.1 1014.1 0.0
13/08:00pm 22.6 20.9 18.2 76 2.8 SSW 24 44 13 24 1014.1 1014.1 0.0
13/07:30pm 22.9 20.7 17.8 73 3.2 SSW 26 41 14 22 1013.9 1013.9 0.0
13/07:00pm 23.3 21.0 18.4 74 3.1 SSW 28 43 15 23 1013.5 1013.5 0.0
13/06:30pm 23.9 22.2 18.1 70 3.6 SSW 24 39 13 21 1013.3 1013.3 0.0
13/06:00pm 24.1 22.6 18.5 71 3.5 SSW 24 37 13 20 1013.1 1013.1 0.0
13/05:30pm 24.7 23.1 18.4 68 4.0 SSW 24 37 13 20 1012.8 1012.8 0.0
13/05:00pm 25.1 23.9 18.3 66 4.3 SSW 22 39 12 21 1012.6 1012.6 0.0
13/04:30pm 25.0 24.2 18.4 66 4.2 SSW 20 32 11 17 1012.6 1012.6 0.0
13/04:00pm 25.1 23.6 18.5 67 4.2 SW 24 39 13 21 1012.6 1012.6 0.0
13/03:30pm 24.3 22.2 18.9 72 3.4 SW 28 39 15 21 1012.8 1012.8 0.0
13/03:00pm 24.2 22.2 19.1 73 3.3 WSW 28 41 15 22 1013.0 1013.0 0.0
13/02:30pm 24.8 22.7 19.0 70 3.7 WSW 28 39 15 21 1013.1 1013.1 0.0
13/02:00pm 24.6 22.4 18.8 70 3.7 WSW 28 39 15 21 1013.2 1013.2 0.0
13/01:30pm 24.2 22.0 18.6 71 3.5 WSW 28 43 15 23 1013.4 1013.4 0.0
13/01:00pm 24.1 21.9 18.7 72 3.4 SW 28 43 15 23 1013.6 1013.6 0.0
13/12:30pm 24.4 22.4 18.3 69 3.8 WSW 26 39 14 21 1013.5 1013.5 0.0
13/12:00pm 24.7 23.4 17.2 63 4.7 SW 20 33 11 18 1013.6 1013.6 0.0
13/11:30am 25.5 23.9 16.4 57 5.6 SSW 20 30 11 16 1013.9 1013.9 0.0
13/11:00am 24.6 22.7 15.8 58 5.3 SSW 20 32 11 17 1014.0 1014.0 0.0
13/10:30am 23.8 21.7 16.1 62 4.7 SSW 22 35 12 19 1014.0 1014.0 0.0
13/10:00am 23.5 21.1 15.5 60 4.8 SSW 22 33 12 18 1014.1 1014.1 0.0
13/09:30am 22.8 20.9 15.1 62 4.6 S 19 30 10 16 1014.3 1014.3 0.0
13/09:00am 22.1 19.8 14.7 63 4.4 S 20 33 11 18 1013.9 1013.9 0.0
13/08:30am 21.7 18.2 14.6 64 4.2 S 26 43 14 23 1013.8 1013.8 0.0

Latest Capital City Observations: Canberra | Sydney | Melbourne | Brisbane | Adelaide | Perth | Hobart | Darwin

Other Formats:

Comma delimited format used in spreadsheet applications
http://www.bom.gov.au/fwo/IDW60901/IDW60901.94605.axf

JavaScript Object Notation format (JSON) in row-major order
http://www.bom.gov.au/fwo/IDW60901/IDW60901.94605.json